Latest Weather Observations for Sheoaks

IDV60901

Issued at 2:01 am EST Friday 29 May 2015 (issued every 10 minutes, with the page automatically refreshed every 10 minutes)

About weather observations | Map of Melbourne area stations | Latest observations for Melbourne area | Other Formats
Station Details ID: 087168 Name: SHEOAKS Lat: -37.91 Lon: 144.13 Height: 236.7 m
Data from the previous 72 hours. | See also: Recent months at Sheoaks
Date/Time
EST
Tmp

°C
App
Tmp
°C
Dew
Point
°C
Rel
Hum
%
Delta-T

°C
Wind Press
QNH
hPa
Press
MSL
hPa
Rain
since
9 am
mm
Dir
 
Spd
km/h
Gust
km/h
Spd
kts
Gust
kts
29/02:00am 9.5 4.1 4.5 71 2.2 WNW 22 35 12 19 1017.3 1017.4 0.8
29/01:30am 9.8 3.6 4.4 69 2.4 WNW 26 37 14 20 1017.1 1017.2 0.8
29/01:00am 9.8 3.4 5.2 73 2.1 W 28 43 15 23 1016.9 1016.9 0.8
29/12:40am 9.9 3.2 5.7 75 1.9 W 30 48 16 26 1016.9 1016.9 0.8
29/12:30am 10.1 3.1 6.1 76 1.9 W 32 44 17 24 1016.7 1016.7 0.8
29/12:08am 10.1 3.9 6.3 77 1.8 W 28 46 15 25 1016.6 1016.6 0.8
29/12:00am 10.2 4.8 6.5 78 1.8 WNW 24 39 13 21 1016.5 1016.5 0.8
 
Date/Time
EST
Tmp

°C
App
Tmp
°C
Dew
Point
°C
Rel
Hum
%
Delta-T

°C
Wind Press
QNH
hPa
Press
MSL
hPa
Rain
since
9 am
mm
Dir
 
Spd
km/h
Gust
km/h
Spd
kts
Gust
kts
28/11:30pm 10.4 5.1 6.7 78 1.8 WNW 24 37 13 20 1016.4 1016.4 0.8
28/11:00pm 10.7 5.4 7.0 78 1.8 WNW 24 39 13 21 1016.5 1016.5 0.8
28/10:30pm 10.4 6.1 7.8 84 1.3 WNW 20 37 11 20 1016.5 1016.5 0.8
28/10:00pm 10.7 5.2 7.6 81 1.5 W 26 39 14 21 1016.4 1016.4 0.8
28/09:30pm 11.0 5.9 7.5 79 1.7 WNW 24 43 13 23 1016.1 1016.1 0.8
28/09:00pm 10.9 6.3 8.3 84 1.3 WNW 22 33 12 18 1016.1 1016.1 0.8
28/08:30pm 11.1 6.6 8.7 85 1.2 WNW 22 32 12 17 1016.0 1016.0 0.8
28/08:00pm 10.8 5.2 8.6 86 1.1 W 28 39 15 21 1016.2 1016.2 0.8
28/07:30pm 11.8 8.1 10.2 90 0.8 W 20 35 11 19 1015.6 1015.7 0.8
28/07:00pm 12.0 8.2 9.9 87 1.1 W 20 32 11 17 1015.0 1015.1 0.2
28/06:30pm 14.3 9.3 8.0 66 3.2 W 24 41 13 22 1013.9 1014.0 0.0
28/06:00pm 15.9 10.9 6.3 53 4.7 WNW 22 33 12 18 1013.5 1013.6 0.0
28/05:30pm 16.4 12.5 5.4 48 5.3 NW 15 28 8 15 1013.1 1013.1 0.0
28/05:00pm 17.1 11.4 5.1 45 5.8 NW 24 39 13 21 1012.8 1012.8 0.0
28/04:30pm 17.6 13.0 6.5 48 5.6 NW 20 33 11 18 1012.8 1012.8 0.0
28/04:03pm 18.0 11.9 6.5 47 5.8 NW 28 46 15 25 1012.6 1012.6 0.0
28/04:00pm 18.1 11.6 6.6 47 5.8 NW 30 46 16 25 1012.6 1012.6 0.0
28/03:54pm 17.9 11.8 6.4 47 5.8 NW 28 46 15 25 1012.4 1012.4 0.0
28/03:30pm 18.3 12.6 6.8 47 5.8 NW 26 52 14 28 1012.5 1012.5 0.0
28/03:00pm 18.6 12.1 6.4 45 6.1 NW 30 50 16 27 1012.7 1012.7 0.0
28/02:55pm 18.4 12.2 6.3 45 6.1 NW 28 50 15 27 1012.5 1012.5 0.0
28/02:30pm 18.3 12.7 7.1 48 5.7 NW 26 39 14 21 1013.0 1013.0 0.0
28/02:04pm 17.9 11.1 7.0 49 5.5 NW 32 52 17 28 1012.8 1012.8 0.0
28/02:00pm 17.9 11.5 7.0 49 5.5 NW 30 46 16 25 1012.9 1012.9 0.0
28/01:42pm 17.8 11.7 6.7 48 5.6 NW 28 54 15 29 1013.2 1013.2 0.0
28/01:30pm 18.2 12.2 7.0 48 5.7 NW 28 46 15 25 1013.4 1013.5 0.0
28/01:00pm 18.0 11.5 6.5 47 5.8 NW 30 46 16 25 1013.6 1013.7 0.0
28/12:30pm 18.0 11.6 6.8 48 5.6 NNW 30 46 16 25 1014.0 1014.1 0.0
28/12:00pm 17.9 11.6 5.8 45 6.0 NNW 28 52 15 28 1014.5 1014.6 0.0
28/11:35am 18.4 11.7 5.6 43 6.3 NW 30 57 16 31 1014.9 1015.0 0.0
28/11:30am 18.5 13.1 6.4 45 6.1 NNW 24 39 13 21 1015.0 1015.1 0.0
28/11:00am 17.4 11.7 6.6 49 5.4 NNW 26 39 14 21 1015.3 1015.4 0.0
28/10:46am 16.9 10.8 6.4 50 5.2 NNW 28 48 15 26 1015.4 1015.5 0.0
28/10:30am 16.2 10.5 6.6 53 4.8 NNW 26 37 14 20 1016.0 1016.0 0.0
28/10:00am 15.7 10.7 6.4 54 4.6 NNW 22 37 12 20 1016.1 1016.1 0.0
28/09:30am 14.3 9.0 6.6 60 3.8 N 24 35 13 19 1016.1 1016.1 0.0
28/09:00am 13.4 8.8 6.7 64 3.3 N 20 35 11 19 1016.2 1016.2 0.0
28/08:30am 12.6 8.2 6.4 66 3.0 N 19 30 10 16 1016.4 1016.4 0.0
28/08:00am 12.6 8.2 6.6 67 2.9 NNW 19 30 10 16 1016.4 1016.4 0.0
28/07:30am 12.7 8.7 6.7 67 2.9 NNW 17 32 9 17 1016.4 1016.4 0.0
28/07:00am 12.7 9.2 7.0 68 2.8 NNW 15 24 8 13 1016.6 1016.6 0.0
28/06:30am 13.1 9.3 7.5 69 2.8 NNW 17 26 9 14 1016.3 1016.3 0.0
28/06:00am 12.8 9.0 7.7 71 2.5 N 17 24 9 13 1016.0 1016.0 0.0
28/05:30am 12.9 8.8 7.8 71 2.5 N 19 24 10 13 1016.0 1016.0 0.0
28/05:00am 12.8 8.8 8.1 73 2.3 N 19 26 10 14 1016.2 1016.2 0.0
28/04:30am 12.7 9.0 7.8 72 2.4 NNW 17 28 9 15 1016.4 1016.4 0.0
28/04:00am 13.0 9.3 7.9 71 2.5 NNW 17 26 9 14 1016.4 1016.4 0.0
28/03:30am 12.9 8.7 7.6 70 2.6 N 19 28 10 15 1016.4 1016.4 0.0
28/03:00am 12.7 8.9 7.6 71 2.5 NNW 17 24 9 13 1016.7 1016.7 0.0
28/02:30am 12.5 9.0 7.4 71 2.5 NNW 15 22 8 12 1017.0 1017.1 0.0
28/02:00am 12.5 9.4 7.4 71 2.5 NNW 13 20 7 11 1017.0 1017.1 0.0
28/01:30am 12.5 8.7 7.6 72 2.4 N 17 24 9 13 1017.1 1017.2 0.0
28/01:00am 12.3 8.9 7.6 73 2.3 N 15 22 8 12 1017.3 1017.4 0.0
28/12:30am 12.9 9.5 7.8 71 2.5 N 15 22 8 12 1017.6 1017.7 0.0
28/12:00am 13.4 10.1 8.0 70 2.7 NNW 15 22 8 12 1017.8 1017.9 0.0
 
Date/Time
EST
Tmp

°C
App
Tmp
°C
Dew
Point
°C
Rel
Hum
%
Delta-T

°C
Wind Press
QNH
hPa
Press
MSL
hPa
Rain
since
9 am
mm
Dir
 
Spd
km/h
Gust
km/h
Spd
kts
Gust
kts
27/11:30pm 13.9 10.3 8.3 69 2.8 NNW 17 24 9 13 1018.0 1018.1 0.0
27/11:00pm 13.7 9.8 8.5 71 2.6 NNW 19 32 10 17 1017.9 1018.0 0.0
27/10:30pm 13.7 9.8 8.7 72 2.5 NNW 19 28 10 15 1018.0 1018.1 0.0
27/10:00pm 13.0 9.9 8.9 76 2.1 N 15 26 8 14 1018.1 1018.2 0.0
27/09:30pm 12.2 9.4 8.5 78 1.9 N 13 17 7 9 1018.1 1018.2 0.0
27/09:00pm 12.9 9.8 8.8 76 2.1 N 15 20 8 11 1018.0 1018.1 0.0
27/08:30pm 12.9 9.4 8.8 76 2.1 N 17 24 9 13 1017.9 1018.0 0.0
27/08:00pm 13.3 9.8 8.8 74 2.3 N 17 26 9 14 1017.9 1018.0 0.0
27/07:30pm 13.8 9.9 8.8 72 2.6 N 19 26 10 14 1017.9 1018.0 0.0
27/07:00pm 13.7 9.6 8.7 72 2.5 N 20 30 11 16 1017.9 1018.0 0.0
27/06:30pm 13.6 10.8 8.7 72 2.5 NNW 13 20 7 11 1017.9 1018.0 0.0
27/06:00pm 14.3 11.2 8.9 70 2.8 NNW 15 20 8 11 1017.7 1017.8 0.0
27/05:30pm 14.9 11.4 8.8 67 3.1 NNW 17 26 9 14 1017.7 1017.8 0.0
27/05:00pm 15.4 12.7 8.9 65 3.4 NNW 13 22 7 12 1017.5 1017.6 0.0
27/04:30pm 16.3 12.3 9.0 62 3.8 NNW 20 37 11 20 1017.3 1017.4 0.0
27/04:00pm 16.8 12.4 8.8 59 4.2 NNW 22 41 12 22 1017.2 1017.3 0.0
27/03:30pm 17.1 12.3 8.8 58 4.3 NW 24 37 13 20 1017.1 1017.2 0.0
27/03:00pm 17.3 12.9 9.0 58 4.3 NNW 22 37 12 20 1016.9 1016.9 0.0
27/02:30pm 17.4 13.0 8.8 57 4.5 NNW 22 39 12 21 1016.9 1016.9 0.0
27/02:00pm 17.3 12.9 9.0 58 4.3 NNW 22 37 12 20 1017.2 1017.3 0.0
27/01:30pm 16.9 12.2 9.1 60 4.1 NNW 24 33 13 18 1017.4 1017.5 0.0
27/01:00pm 16.7 12.4 9.4 62 3.8 NNW 22 32 12 17 1017.7 1017.8 0.0
27/12:30pm 16.7 12.4 9.4 62 3.8 NNW 22 35 12 19 1018.0 1018.1 0.0
27/12:00pm 16.1 11.7 9.1 63 3.6 NNW 22 39 12 21 1018.6 1018.7 0.0
27/11:30am 15.4 11.0 9.1 66 3.3 NNW 22 37 12 20 1019.0 1019.1 0.0
27/11:00am 14.7 10.9 9.1 69 2.9 NNW 19 26 10 14 1019.4 1019.5 0.0
27/10:30am 13.5 8.6 8.6 72 2.5 NNW 24 33 13 18 1019.4 1019.5 0.0
27/10:00am 13.4 9.4 8.3 71 2.6 N 19 33 10 18 1019.6 1019.7 0.0
27/09:30am 13.7 9.5 8.1 69 2.8 NNW 20 28 11 15 1019.6 1019.7 0.0
27/09:00am 13.3 8.9 7.5 68 2.9 NNW 20 32 11 17 1019.5 1019.6 0.0
27/08:30am 12.9 8.7 7.4 69 2.7 NNW 19 28 10 15 1019.6 1019.7 0.0
27/08:00am 12.7 8.2 7.0 68 2.8 NNW 20 30 11 16 1019.7 1019.8 0.0
27/07:30am 12.8 8.4 6.6 66 3.0 NNW 19 32 10 17 1019.6 1019.7 0.0
27/07:00am 12.9 8.4 6.3 64 3.2 N 19 33 10 18 1019.2 1019.3 0.0
27/06:30am 12.7 8.0 6.1 64 3.2 N 20 32 11 17 1019.0 1019.1 0.0
27/06:00am 13.2 8.1 6.1 62 3.4 NNW 22 35 12 19 1018.9 1019.0 0.0
27/05:30am 13.7 8.7 6.3 61 3.6 NNW 22 32 12 17 1019.0 1019.1 0.0
27/05:00am 13.4 8.9 6.3 62 3.4 NNW 19 28 10 15 1019.3 1019.4 0.0
27/04:30am 13.3 8.6 6.2 62 3.4 NNW 20 30 11 16 1019.5 1019.6 0.0
27/04:00am 13.5 8.4 6.1 61 3.6 NNW 22 35 12 19 1019.7 1019.8 0.0
27/03:30am 13.4 8.8 6.3 62 3.4 NNW 20 32 11 17 1020.0 1020.1 0.0
27/03:00am 13.4 8.8 6.3 62 3.4 NNW 20 32 11 17 1020.1 1020.2 0.0
27/02:30am 13.2 8.5 6.1 62 3.4 NNW 20 32 11 17 1020.5 1020.5 0.0
27/02:00am 13.3 8.6 6.2 62 3.4 NNW 20 35 11 19 1020.8 1020.9 0.0
27/01:30am 13.2 8.5 6.1 62 3.4 NNW 20 30 11 16 1020.8 1020.9 0.0
27/01:00am 13.3 8.6 6.2 62 3.4 NNW 20 32 11 17 1021.1 1021.2 0.0
27/12:30am 13.0 8.4 6.6 65 3.1 NNW 20 30 11 16 1021.5 1021.6 0.0
27/12:00am 12.5 8.4 6.3 66 3.0 NNW 17 24 9 13 1022.0 1022.1 0.0
 
Date/Time
EST
Tmp

°C
App
Tmp
°C
Dew
Point
°C
Rel
Hum
%
Delta-T

°C
Wind Press
QNH
hPa
Press
MSL
hPa
Rain
since
9 am
mm
Dir
 
Spd
km/h
Gust
km/h
Spd
kts
Gust
kts
26/11:30pm 12.6 8.2 6.6 67 2.9 NNW 19 26 10 14 1022.3 1022.4 0.0
26/11:00pm 12.6 8.0 6.6 67 2.9 NNW 20 32 11 17 1022.5 1022.6 0.0
26/10:30pm 11.5 8.2 6.4 71 2.4 NNW 13 17 7 9 1022.5 1022.6 0.0
26/10:00pm 11.3 8.3 6.2 71 2.4 NNW 11 19 6 10 1022.8 1022.9 0.0
26/09:30pm 11.7 8.4 6.4 70 2.5 NNW 13 19 7 10 1023.0 1023.1 0.0
26/09:00pm 11.9 8.3 6.6 70 2.5 NNW 15 20 8 11 1023.2 1023.3 0.0
26/08:30pm 11.8 9.0 6.9 72 2.4 N 11 17 6 9 1023.3 1023.4 0.0
26/08:00pm 11.6 8.8 7.1 74 2.2 N 11 17 6 9 1023.4 1023.5 0.0
26/07:30pm 10.3 8.4 7.7 84 1.3 N 7 9 4 5 1023.5 1023.6 0.0
26/07:00pm 9.5 7.8 7.4 87 1.0 ENE 6 7 3 4 1023.8 1023.9 0.0
26/06:30pm 10.1 8.7 7.3 83 1.3 ENE 4 6 2 3 1024.1 1024.3 0.0
26/06:00pm 10.7 10.1 7.6 81 1.5 CALM 0 4 0 2 1024.3 1024.5 0.0
26/05:30pm 10.1 7.7 7.0 81 1.5 NE 9 9 5 5 1024.2 1024.4 0.0
26/05:00pm 12.2 10.4 7.9 75 2.1 ENE 7 9 4 5 1024.2 1024.4 0.0
26/04:30pm 12.5 10.8 7.6 72 2.4 ENE 6 9 3 5 1024.3 1024.5 0.0
26/04:00pm 13.0 11.1 7.5 69 2.7 ENE 7 9 4 5 1024.5 1024.7 0.0
26/03:30pm 13.1 10.7 7.1 67 2.9 ENE 9 11 5 6 1024.9 1025.0 0.0
26/03:00pm 13.2 10.8 7.0 66 3.0 E 9 13 5 7 1025.0 1025.1 0.0
26/02:30pm 13.1 11.3 7.8 70 2.6 E 7 11 4 6 1025.2 1025.3 0.0
26/02:00pm 13.3 11.1 8.0 70 2.6 SE 9 11 5 6 1025.5 1025.6 0.0
26/01:30pm 13.4 11.6 7.8 69 2.8 SSE 7 11 4 6 1025.9 1026.0 0.0
26/01:00pm 13.7 11.9 7.2 65 3.2 SE 6 7 3 4 1026.4 1026.5 0.0
26/12:30pm 13.9 13.2 7.0 63 3.4 CALM 0 2 0 1 1026.7 1026.8 0.0
26/12:00pm 13.6 12.5 6.9 64 3.3 NNE 2 6 1 3 1027.0 1027.1 0.0
26/11:30am 12.8 11.7 6.8 67 2.9 NNW 2 6 1 3 1027.7 1027.9 0.0
26/11:00am 11.6 9.7 6.5 71 2.4 NNW 6 6 3 3 1028.3 1028.5 0.0
26/10:30am 11.0 9.0 6.2 72 2.3 N 6 9 3 5 1028.6 1028.8 0.0
26/10:00am 10.0 7.9 6.0 76 1.9 N 6 9 3 5 1028.9 1029.1 0.0
26/09:30am 8.1 5.6 4.9 80 1.4 NNW 7 11 4 6 1029.0 1029.2 0.0
26/09:00am 6.2 3.6 4.4 88 0.8 N 7 9 4 5 1029.3 1029.4 0.0
26/08:30am 4.8 1.7 3.6 92 0.5 N 9 11 5 6 1029.1 1029.3 0.0
26/08:00am 3.9 0.7 2.9 93 0.4 N 9 11 5 6 1028.9 1029.1 0.0
26/07:30am 3.4 0.1 2.4 93 0.4 N 9 11 5 6 1029.0 1029.2 0.0
26/07:00am 3.6 -0.1 2.6 93 0.4 N 11 11 6 6 1028.7 1028.9 0.0
26/06:30am 3.6 0.3 2.6 93 0.4 N 9 11 5 6 1028.6 1028.8 0.0
26/06:00am 3.6 -0.1 2.6 93 0.4 N 11 11 6 6 1028.5 1028.7 0.0
26/05:30am 3.9 0.3 2.7 92 0.5 N 11 13 6 7 1028.4 1028.6 0.0
26/05:00am 4.2 1.0 3.0 92 0.5 N 9 13 5 7 1028.6 1028.8 0.0
26/04:30am 4.3 1.1 3.1 92 0.5 N 9 11 5 6 1028.5 1028.7 0.0
26/04:00am 4.4 1.2 3.1 91 0.5 N 9 11 5 6 1028.6 1028.8 0.0
26/03:30am 4.5 0.9 3.2 91 0.5 N 11 13 6 7 1028.7 1028.9 0.0
26/03:00am 4.4 1.2 3.1 91 0.5 N 9 11 5 6 1028.8 1029.0 0.0
26/02:30am 4.7 1.5 3.2 90 0.6 N 9 13 5 7 1029.1 1029.3 0.0

Latest Capital City Observations: Canberra | Sydney | Melbourne | Brisbane | Adelaide | Perth | Hobart | Darwin

Other Formats:

Comma delimited format used in spreadsheet applications
http://www.bom.gov.au/fwo/IDV60901/IDV60901.94863.axf

JavaScript Object Notation format (JSON) in row-major order
http://www.bom.gov.au/fwo/IDV60901/IDV60901.94863.json